createdAt,value
2022-11-26T05:15:29.826Z,54.97
2022-11-26T05:17:56.298Z,54.51
2022-11-26T05:20:23.060Z,55.28
2022-11-26T05:22:52.535Z,55.20
2022-11-26T05:25:18.959Z,55.02
2022-11-26T05:27:45.460Z,54.91
2022-11-26T05:30:12.450Z,54.32
2022-11-26T05:32:38.921Z,54.16
2022-11-26T05:35:05.762Z,54.35
2022-11-26T05:37:32.640Z,54.34
2022-11-26T05:39:59.097Z,53.68
2022-11-26T05:42:25.557Z,53.52
2022-11-26T05:44:52.043Z,53.38
2022-11-26T05:47:18.529Z,53.06
2022-11-26T05:49:44.970Z,52.78
2022-11-26T05:52:11.464Z,52.72
2022-11-26T05:54:42.030Z,52.27
2022-11-26T05:57:08.642Z,52.73
2022-11-26T05:59:35.199Z,52.22
2022-11-26T06:02:01.744Z,52.94
2022-11-26T06:04:29.080Z,54.40
2022-11-26T06:06:55.621Z,54.12
2022-11-26T06:09:22.141Z,53.15
2022-11-26T06:11:50.324Z,52.95
2022-11-26T06:14:17.492Z,52.78
2022-11-26T06:16:44.251Z,52.56
2022-11-26T06:19:11.975Z,52.52
2022-11-26T06:21:39.518Z,52.41
2022-11-26T06:24:36.436Z,52.47
2022-11-26T06:27:05.239Z,53.88
2022-11-26T06:29:31.748Z,54.20
2022-11-26T06:32:01.526Z,53.94
2022-11-26T06:34:27.980Z,54.23
2022-11-26T06:36:54.415Z,55.43
2022-11-26T06:39:20.862Z,54.94
2022-11-26T06:41:47.439Z,55.42
2022-11-26T06:44:14.136Z,54.83
2022-11-26T06:46:40.618Z,55.32
2022-11-26T06:49:07.371Z,54.87
2022-11-26T06:51:33.862Z,54.02
2022-11-26T06:54:00.322Z,53.69
2022-11-26T06:56:26.780Z,53.55
2022-11-26T06:58:55.212Z,53.79
2022-11-26T07:01:30.228Z,53.55
2022-11-26T07:03:56.725Z,53.33
2022-11-26T07:06:29.073Z,53.19
2022-11-26T07:08:57.467Z,52.90
2022-11-26T07:11:25.504Z,52.87
2022-11-26T07:13:52.386Z,52.78
2022-11-26T07:16:18.956Z,53.03
2022-11-26T07:18:50.112Z,53.22
2022-11-26T07:21:17.112Z,53.03
2022-11-26T07:23:43.741Z,52.61
2022-11-26T07:26:12.411Z,52.56
2022-11-26T07:28:39.572Z,53.00
2022-11-26T07:31:16.395Z,53.16
2022-11-26T07:33:44.167Z,53.10
2022-11-26T07:36:26.011Z,53.12
2022-11-26T07:38:57.274Z,53.00
2022-11-26T07:41:25.071Z,53.25
2022-11-26T07:43:54.924Z,52.88
2022-11-26T07:46:24.869Z,53.63
2022-11-26T07:48:51.761Z,53.19
2022-11-26T07:52:33.144Z,53.10
2022-11-26T07:54:31.172Z,53.63
2022-11-26T07:57:02.553Z,52.92
2022-11-26T07:59:29.708Z,52.47
2022-11-26T08:02:47.016Z,53.87
2022-11-26T08:05:13.557Z,53.43
2022-11-26T08:07:40.100Z,53.31
2022-11-26T08:10:07.227Z,53.03
2022-11-26T08:12:33.722Z,53.27
2022-11-26T08:15:00.179Z,53.30
2022-11-26T08:17:26.720Z,53.00
2022-11-26T08:19:55.246Z,53.02
2022-11-26T08:22:23.773Z,52.42
2022-11-26T08:24:50.281Z,52.84
2022-11-26T08:27:17.253Z,53.10
2022-11-26T08:29:43.689Z,52.64
2022-11-26T08:32:10.137Z,52.83
2022-11-26T08:34:36.878Z,52.95
2022-11-26T08:37:30.181Z,52.57
2022-11-26T08:39:56.598Z,52.80
2022-11-26T08:42:23.075Z,52.65
2022-11-26T08:44:51.734Z,53.57
2022-11-26T08:47:49.085Z,52.70
2022-11-26T08:50:16.331Z,52.75
2022-11-26T08:52:43.597Z,53.20
2022-11-26T08:55:10.211Z,56.68
2022-11-26T08:57:36.765Z,57.85
2022-11-26T09:00:05.304Z,60.34
2022-11-26T09:02:36.961Z,58.95
2022-11-26T09:05:19.461Z,59.78
2022-11-26T09:07:49.208Z,60.32
2022-11-26T09:10:24.097Z,59.77
2022-11-26T09:12:51.014Z,58.00
2022-11-26T09:15:20.860Z,59.31
2022-11-26T09:17:52.358Z,59.90
2022-11-26T09:20:21.409Z,57.23
2022-11-26T09:22:48.006Z,57.58
2022-11-26T09:25:14.916Z,56.91
2022-11-26T09:27:41.518Z,55.70
2022-11-26T09:30:08.619Z,57.64
2022-11-26T09:32:35.320Z,57.14
2022-11-26T09:35:04.845Z,56.24
2022-11-26T09:37:32.205Z,56.24
2022-11-26T09:39:59.065Z,57.47
2022-11-26T09:42:31.873Z,57.50
2022-11-26T09:45:34.742Z,57.66
2022-11-26T09:48:03.125Z,57.30
2022-11-26T09:50:35.544Z,57.61
2022-11-26T09:53:27.612Z,58.00
2022-11-26T09:55:59.093Z,58.84
2022-11-26T09:58:48.985Z,57.58
2022-11-26T10:01:21.072Z,57.08
2022-11-26T10:03:54.409Z,57.78
2022-11-26T10:07:20.447Z,57.10
2022-11-26T10:09:53.919Z,56.34
2022-11-26T10:13:03.530Z,57.60
2022-11-26T10:15:35.735Z,57.16
2022-11-26T10:18:20.876Z,57.60
2022-11-26T10:24:32.049Z,57.80
2022-11-26T10:27:19.279Z,57.23
2022-11-26T10:29:54.254Z,56.68
2022-11-26T10:32:27.686Z,55.39
2022-11-26T10:34:58.553Z,56.39
2022-11-26T10:37:27.310Z,57.87
2022-11-26T10:40:08.843Z,57.13
2022-11-26T10:42:46.871Z,57.49
2022-11-26T10:45:28.020Z,57.57
2022-11-26T10:48:31.200Z,56.26
2022-11-26T10:50:59.764Z,55.11
2022-11-26T10:53:28.651Z,54.01
2022-11-26T10:55:59.130Z,52.62
2022-11-26T10:58:30.252Z,53.32
2022-11-26T11:01:01.903Z,52.23
2022-11-26T11:06:37.621Z,53.32
2022-11-26T11:09:25.647Z,54.26
2022-11-26T11:12:16.478Z,54.26
2022-11-26T11:14:47.470Z,54.95
2022-11-26T11:17:35.617Z,55.38
2022-11-26T11:20:14.885Z,55.44
2022-11-26T11:22:44.273Z,54.74
2022-11-26T11:25:32.458Z,53.52
2022-11-26T11:28:12.003Z,52.41
2022-11-26T11:30:40.410Z,53.81
2022-11-26T11:33:23.997Z,53.60
2022-11-26T11:36:15.088Z,51.83
2022-11-26T11:38:52.477Z,50.10
2022-11-26T11:41:27.020Z,49.82
2022-11-26T11:44:00.041Z,48.59
2022-11-26T11:46:49.281Z,46.32
2022-11-26T11:49:40.517Z,46.27
2022-11-26T11:52:54.816Z,45.56
2022-11-26T11:55:24.266Z,44.27
2022-11-26T11:58:35.451Z,44.04
2022-11-26T12:01:38.374Z,45.13
2022-11-26T12:04:29.095Z,45.91
2022-11-26T12:07:33.879Z,45.15
2022-11-26T12:10:00.317Z,45.94
2022-11-26T12:12:33.587Z,46.48
2022-11-26T12:15:10.308Z,48.35
2022-11-26T12:17:46.881Z,48.29
2022-11-26T12:20:31.447Z,49.34
2022-11-26T12:23:38.414Z,48.15
2022-11-26T12:26:27.666Z,47.27
2022-11-26T12:29:00.653Z,47.13
2022-11-26T12:31:41.952Z,45.23
2022-11-26T12:34:32.180Z,46.38
2022-11-26T12:37:05.688Z,48.31
2022-11-26T12:39:56.175Z,52.23
2022-11-26T12:42:33.617Z,52.31
2022-11-26T12:45:25.470Z,54.53
2022-11-26T12:47:59.866Z,52.75
2022-11-26T12:50:38.174Z,50.72
2022-11-26T12:53:24.183Z,50.52
2022-11-26T12:56:02.684Z,52.05
2022-11-26T12:58:42.494Z,55.89
2022-11-26T13:01:11.170Z,56.35
2022-11-26T13:03:37.701Z,57.12
2022-11-26T13:06:31.758Z,57.41
2022-11-26T13:09:07.956Z,56.77
2022-11-26T13:11:57.245Z,55.54
2022-11-26T13:14:31.246Z,54.80
2022-11-26T13:17:12.222Z,54.67
2022-11-26T13:19:43.791Z,57.57
2022-11-26T13:22:33.911Z,56.71
2022-11-26T13:25:26.729Z,55.94
2022-11-26T13:28:10.287Z,56.35
2022-11-26T13:31:07.871Z,55.36
2022-11-26T13:34:26.331Z,54.90
2022-11-26T13:37:57.730Z,55.38
2022-11-26T13:40:30.294Z,54.98
2022-11-26T13:42:56.778Z,56.47
2022-11-26T13:45:54.640Z,57.81
2022-11-26T13:48:58.290Z,55.45
2022-11-26T13:51:49.015Z,55.19
2022-11-26T13:54:18.562Z,54.60
2022-11-26T13:56:46.944Z,56.46
2022-11-26T13:59:28.329Z,57.50
2022-11-26T14:01:56.125Z,57.72
2022-11-26T14:04:22.603Z,56.48
2022-11-26T14:07:04.377Z,55.56
2022-11-26T14:09:43.176Z,55.61
2022-11-26T14:12:10.850Z,55.79
2022-11-26T14:14:39.419Z,56.55
2022-11-26T14:17:30.100Z,55.78
2022-11-26T14:20:01.116Z,55.70
2022-11-26T14:22:29.624Z,56.00
2022-11-26T14:25:02.411Z,55.96
2022-11-26T14:27:34.808Z,54.67
2022-11-26T14:30:07.450Z,53.63
2022-11-26T14:33:14.554Z,53.90
2022-11-26T14:35:51.639Z,56.77
2022-11-26T14:38:27.628Z,55.18
2022-11-26T14:40:59.284Z,55.80
2022-11-26T14:43:26.089Z,55.69
2022-11-26T14:46:19.646Z,54.93
2022-11-26T14:48:48.747Z,56.76
2022-11-26T14:51:23.358Z,56.37
2022-11-26T14:53:50.801Z,56.77
2022-11-26T14:56:19.673Z,54.79
2022-11-26T14:58:51.554Z,54.91
2022-11-26T15:01:23.743Z,55.41
2022-11-26T15:04:05.387Z,55.60
2022-11-26T15:06:37.928Z,56.23
2022-11-26T15:09:16.833Z,54.96
2022-11-26T15:12:12.455Z,54.88
2022-11-26T15:14:53.865Z,52.90
2022-11-26T15:17:24.088Z,53.59
2022-11-26T15:19:52.594Z,52.65
2022-11-26T15:22:32.907Z,53.18
2022-11-26T15:24:59.531Z,52.41
2022-11-26T15:27:36.228Z,52.03
2022-11-26T15:30:05.328Z,52.13
2022-11-26T15:32:33.880Z,52.32
2022-11-26T15:35:02.843Z,52.58
2022-11-26T15:37:29.449Z,53.14
2022-11-26T15:40:23.485Z,54.11
2022-11-26T15:42:53.790Z,53.59
2022-11-26T15:45:22.960Z,54.23
2022-11-26T15:47:52.391Z,52.76
2022-11-26T15:50:25.662Z,52.12
2022-11-26T15:52:56.531Z,53.33
2022-11-26T15:55:28.460Z,52.50
2022-11-26T15:57:56.200Z,52.72
2022-11-26T16:00:27.971Z,52.98
2022-11-26T16:02:54.435Z,52.75
2022-11-26T16:05:35.885Z,52.92
2022-11-26T16:08:32.425Z,54.08
2022-11-26T16:11:08.667Z,53.56
2022-11-26T16:13:36.215Z,53.07
2022-11-26T16:16:15.562Z,53.20
2022-11-26T16:18:48.474Z,53.59
2022-11-26T16:21:16.650Z,52.64
2022-11-26T16:23:43.629Z,51.63
2022-11-26T16:26:17.766Z,52.02
2022-11-26T16:28:45.225Z,52.92
2022-11-26T16:31:12.775Z,54.09
2022-11-26T16:33:39.331Z,54.29
2022-11-26T16:36:16.623Z,53.35
2022-11-26T16:38:45.287Z,52.18
2022-11-26T16:41:14.711Z,52.71
2022-11-26T16:43:41.275Z,52.44
2022-11-26T16:46:14.987Z,52.80
2022-11-26T16:48:42.826Z,52.86
2022-11-26T16:51:09.386Z,51.58
2022-11-26T16:53:35.872Z,52.69
2022-11-26T16:56:02.688Z,52.34
2022-11-26T16:58:32.360Z,53.40
2022-11-26T17:00:59.556Z,52.54
2022-11-26T17:03:29.839Z,51.50
2022-11-26T17:06:11.050Z,53.36
2022-11-26T17:08:37.602Z,52.32
2022-11-26T17:11:04.180Z,51.83
2022-11-26T17:13:31.744Z,51.86
2022-11-26T17:15:58.600Z,50.77
2022-11-26T17:18:26.069Z,49.92
2022-11-26T17:20:54.038Z,50.02
2022-11-26T17:23:20.753Z,49.64
2022-11-26T17:25:51.882Z,50.29
2022-11-26T17:28:18.720Z,51.38
2022-11-26T17:30:45.282Z,51.03
2022-11-26T17:33:12.298Z,50.58
2022-11-26T17:35:39.497Z,51.09
2022-11-26T17:38:19.833Z,50.00
2022-11-26T17:40:47.035Z,49.71
2022-11-26T17:43:14.153Z,49.46
2022-11-26T17:45:41.348Z,49.34
2022-11-26T17:48:12.019Z,49.12
2022-11-26T17:50:38.674Z,48.74
2022-11-26T17:53:05.191Z,48.91
2022-11-26T17:55:31.717Z,48.77
2022-11-26T17:57:58.342Z,49.46
2022-11-26T18:00:30.197Z,49.26
2022-11-26T18:02:57.523Z,48.46
2022-11-26T18:05:24.551Z,49.08
2022-11-26T18:07:55.144Z,50.51
2022-11-26T18:10:23.740Z,49.95
2022-11-26T18:12:54.293Z,50.51
2022-11-26T18:15:22.909Z,50.42
2022-11-26T18:17:51.866Z,49.95
2022-11-26T18:20:20.202Z,50.68
2022-11-26T18:22:52.711Z,50.71
2022-11-26T18:25:19.260Z,49.56
2022-11-26T18:27:45.964Z,49.31
2022-11-26T18:30:12.998Z,51.08
2022-11-26T18:32:39.865Z,50.25
2022-11-26T18:35:07.224Z,50.73
2022-11-26T18:37:35.052Z,49.90
2022-11-26T18:40:04.075Z,51.40
2022-11-26T18:42:38.491Z,50.93
2022-11-26T18:45:07.684Z,49.73
2022-11-26T18:47:34.170Z,50.61
2022-11-26T18:50:00.640Z,51.12
2022-11-26T18:52:27.108Z,50.95
2022-11-26T18:54:54.898Z,50.96
2022-11-26T18:57:21.431Z,52.18
2022-11-26T18:59:48.884Z,52.41
2022-11-26T19:02:15.356Z,52.87
2022-11-26T19:04:41.927Z,53.01
2022-11-26T19:07:08.991Z,52.46
2022-11-26T19:09:35.517Z,53.30
2022-11-26T19:12:02.083Z,52.92
2022-11-26T19:14:28.518Z,52.34
2022-11-26T19:16:55.047Z,51.81
2022-11-26T19:19:22.590Z,51.90
2022-11-26T19:22:00.506Z,51.68
2022-11-26T19:24:31.267Z,51.50
2022-11-26T19:26:57.786Z,51.55
2022-11-26T19:29:24.373Z,50.86
2022-11-26T19:31:50.889Z,50.60
2022-11-26T19:34:18.414Z,51.97
2022-11-26T19:36:49.813Z,51.51
2022-11-26T19:39:16.811Z,50.27
2022-11-26T19:41:43.372Z,50.90
2022-11-26T19:44:09.832Z,51.59
2022-11-26T19:46:40.545Z,50.75
2022-11-26T19:49:08.060Z,50.19
2022-11-26T19:51:34.547Z,49.88
2022-11-26T19:54:00.998Z,49.37
2022-11-26T19:56:30.213Z,51.92
2022-11-26T19:58:58.516Z,51.56
2022-11-26T20:01:27.203Z,51.10
2022-11-26T20:03:54.085Z,51.25
2022-11-26T20:06:23.692Z,50.50
2022-11-26T20:08:50.326Z,49.98
2022-11-26T20:11:21.243Z,50.68
2022-11-26T20:13:49.042Z,49.99
2022-11-26T20:16:30.273Z,50.18
2022-11-26T20:18:59.529Z,50.00
2022-11-26T20:21:28.110Z,51.59
2022-11-26T20:23:57.971Z,51.75
2022-11-26T20:26:34.123Z,51.56
2022-11-26T20:29:12.475Z,50.70
2022-11-26T20:31:42.406Z,51.68
2022-11-26T20:34:08.878Z,51.05
2022-11-26T20:36:35.368Z,51.34
2022-11-26T20:39:02.626Z,51.48
2022-11-26T20:41:29.991Z,52.52
2022-11-26T20:43:59.439Z,52.02
2022-11-26T20:46:28.341Z,50.82
2022-11-26T20:48:55.366Z,51.56
2022-11-26T20:51:22.577Z,51.47
2022-11-26T20:53:50.501Z,53.01
2022-11-26T20:56:19.036Z,52.24
2022-11-26T20:58:45.579Z,52.02
2022-11-26T21:01:17.180Z,52.34
2022-11-26T21:03:44.475Z,51.92
2022-11-26T21:06:13.741Z,52.75
2022-11-26T21:08:41.455Z,51.47
2022-11-26T21:11:08.258Z,51.74
2022-11-26T21:13:36.491Z,51.77
2022-11-26T21:16:05.060Z,51.17
2022-11-26T21:18:32.507Z,51.45
2022-11-26T21:20:59.953Z,52.00
2022-11-26T21:23:26.996Z,50.97
2022-11-26T21:25:53.487Z,50.88
2022-11-26T21:28:20.438Z,50.05
2022-11-26T21:30:47.287Z,50.80
2022-11-26T21:33:14.875Z,50.96
2022-11-26T21:35:41.322Z,50.84
2022-11-26T21:38:07.838Z,51.65
2022-11-26T21:40:34.347Z,50.88
2022-11-26T21:43:00.800Z,50.31
2022-11-26T21:45:30.204Z,50.08
2022-11-26T21:47:56.689Z,50.02
2022-11-26T21:50:23.171Z,49.85
2022-11-26T21:52:49.646Z,50.22
2022-11-26T21:55:16.397Z,50.64
2022-11-26T21:57:42.843Z,50.83
2022-11-26T22:00:09.927Z,50.25
2022-11-26T22:02:36.467Z,50.18
2022-11-26T22:05:03.196Z,50.42
2022-11-26T22:07:30.670Z,50.40
2022-11-26T22:09:57.322Z,49.87
2022-11-26T22:12:23.741Z,49.80
2022-11-26T22:14:50.165Z,49.65
2022-11-26T22:17:16.645Z,49.23
2022-11-26T22:19:43.392Z,49.62
2022-11-26T22:22:09.915Z,50.07
2022-11-26T22:24:36.363Z,50.64
2022-11-26T22:27:02.858Z,50.31
2022-11-26T22:29:29.392Z,50.01
2022-11-26T22:31:55.906Z,50.18
2022-11-26T22:34:24.440Z,50.83
2022-11-26T22:36:51.101Z,50.89
2022-11-26T22:39:18.683Z,50.24
2022-11-26T22:41:46.603Z,49.75
2022-11-26T22:44:15.494Z,48.73
2022-11-26T22:46:42.132Z,48.73
2022-11-26T22:49:12.829Z,48.15
2022-11-26T22:51:39.559Z,48.21
2022-11-26T22:54:09.684Z,48.69
2022-11-26T22:56:37.827Z,48.02
2022-11-26T22:59:06.379Z,48.20
